Friday, January 19, 2018, 10:34 PM EST
Back to Local

KGFL, Floyd Bennett Memorial Airport

Location: Queensbury, NY, United States Lat: 43.333
Local Time: 10:34 PM EST ( 3:34 GMT) Lon: -73.617
Time Zone: US/Eastern Elev: 328 ft

Show me the last for .
Show Coded

Time T Td Feel RH Dir Speed Gust Alt SLP Vis Weather Sky Remarks
2018-01-19 21:53 14 13 - 95 - Calm - 29.86 29.90 4 BR CLR None
2018-01-19 20:53 20 17 - 88 - Calm - 29.88 29.91 7 CLR None
2018-01-19 19:53 25 18 19 74 210° 5 - 29.90 29.93 8 CLR None
2018-01-19 18:53 25 18 19 74 200° 5 - 29.91 29.95 9 CLR 6-hr Min Temp (7pm): 25.0°F
6-hr Max Temp (7pm): 27.0°F
2018-01-19 17:53 27 19 19 71 190° 7 - 29.91 29.94 9 FEW030 BKN039 None
2018-01-19 17:40 26 20 19 77 170° 6 - 29.92 - 9 SCT030 OVC040 None
2018-01-19 16:53 27 19 20 71 180° 6 - 29.92 29.95 8 OVC026 None
2018-01-19 15:53 27 19 19 71 180° 7 - 29.92 29.95 9 BKN029 OVC043 None
2018-01-19 14:53 27 18 19 68 210° 7 - 29.93 29.96 10 OVC028 None
2018-01-19 13:53 26 17 18 68 200° 8 - 29.93 29.96 9 OVC029 None
2018-01-19 13:43 25 16 15 68 210° 10 - 29.93 - 9 OVC028 None
2018-01-19 12:53 25 16 16 68 200° 8 - 29.94 29.97 9 OVC038 6-hr Min Temp (1pm): 19.9°F
6-hr Max Temp (1pm): 25.0°F
2018-01-19 11:53 24 16 14 70 220° 10 - 29.96 29.99 9 OVC037 None
2018-01-19 10:53 23 16 13 74 200° 9 - 29.98 30.01 8 OVC035 None
2018-01-19 09:53 22 15 10 74 200° 12 - 29.98 30.01 7 OVC034 None
2018-01-19 08:53 21 15 11 77 210° 8 - 29.98 30.01 7 OVC032 None
2018-01-19 08:06 21 15 11 77 210° 9 - 29.98 - 7 OVC031 None
2018-01-19 07:53 20 15 11 81 210° 7 - 29.98 30.01 7 OVC029 None
2018-01-19 06:53 20 16 12 84 210° 6 - 29.98 30.01 8 OVC026 6-hr Min Temp (7am): 19.9°F
6-hr Max Temp (7am): 21.9°F
2018-01-19 06:25 21 16 15 80 180° 5 - 29.97 - 8 BKN027 OVC033 None
2018-01-19 05:53 21 16 15 80 170° 5 - 29.96 29.99 7 OVC033 None
2018-01-19 05:33 21 16 13 80 220° 6 - 29.97 - 8 OVC030 None
2018-01-19 04:53 21 16 15 80 190° 5 - 29.96 29.99 8 OVC029 None
2018-01-19 03:53 21 17 13 84 210° 6 - 29.96 29.99 6 BR OVC015 None
2018-01-19 02:53 22 18 16 84 190° 5 - 29.96 29.99 7 OVC026 None
2018-01-19 01:53 22 17 16 81 200° 5 - 29.96 29.99 8 OVC024 None
2018-01-19 00:53 22 17 13 81 250° 7 - 29.97 30.00 9 OVC025 6-hr Min Temp (1am): 19.0°F
6-hr Max Temp (1am): 21.9°F
2018-01-18 23:53 22 16 12 77 250° 9 - 29.99 30.02 10 OVC028 24-hr Min Temp (12am): -9.0°F
24-hr Max Temp (12am): 21.9°F
2018-01-18 23:42 22 16 14 77 250° 6 - 29.98 - 10 OVC029 None
2018-01-18 22:53 22 16 16 77 200° 5 - 29.98 30.02 10 OVC032 None

Support USWX by starting your Amazon purchase here.